sensor_id;sensor_type;location;lat;lon;timestamp;P1;durP1;ratioP1;P2;durP2;ratioP2
3815;SDS011;1923;48.154;11.536;2023-08-06T00:01:35;5.10;;;3.50;;
3815;SDS011;1923;48.154;11.536;2023-08-06T00:04:04;4.90;;;3.63;;
3815;SDS011;1923;48.154;11.536;2023-08-06T00:06:32;6.83;;;4.00;;
3815;SDS011;1923;48.154;11.536;2023-08-06T00:09:00;6.13;;;3.50;;
3815;SDS011;1923;48.154;11.536;2023-08-06T00:11:28;5.37;;;3.60;;
3815;SDS011;1923;48.154;11.536;2023-08-06T00:13:57;8.23;;;3.33;;
3815;SDS011;1923;48.154;11.536;2023-08-06T00:16:25;6.40;;;4.40;;
3815;SDS011;1923;48.154;11.536;2023-08-06T00:18:53;5.83;;;3.43;;
3815;SDS011;1923;48.154;11.536;2023-08-06T00:21:22;5.77;;;3.80;;
3815;SDS011;1923;48.154;11.536;2023-08-06T00:23:50;5.83;;;3.63;;
3815;SDS011;1923;48.154;11.536;2023-08-06T00:26:18;5.23;;;3.30;;
3815;SDS011;1923;48.154;11.536;2023-08-06T00:28:47;3.80;;;2.90;;
3815;SDS011;1923;48.154;11.536;2023-08-06T00:31:16;6.50;;;3.10;;
3815;SDS011;1923;48.154;11.536;2023-08-06T00:33:44;6.83;;;3.53;;
3815;SDS011;1923;48.154;11.536;2023-08-06T00:36:12;3.57;;;2.73;;
3815;SDS011;1923;48.154;11.536;2023-08-06T00:38:40;6.00;;;3.47;;
3815;SDS011;1923;48.154;11.536;2023-08-06T00:41:08;4.50;;;3.10;;
3815;SDS011;1923;48.154;11.536;2023-08-06T00:43:37;6.03;;;3.03;;
3815;SDS011;1923;48.154;11.536;2023-08-06T00:46:05;5.73;;;3.20;;
3815;SDS011;1923;48.154;11.536;2023-08-06T00:48:34;6.57;;;3.20;;
3815;SDS011;1923;48.154;11.536;2023-08-06T00:51:03;7.90;;;3.97;;
3815;SDS011;1923;48.154;11.536;2023-08-06T00:53:31;5.90;;;3.50;;
3815;SDS011;1923;48.154;11.536;2023-08-06T00:55:59;5.83;;;3.83;;
3815;SDS011;1923;48.154;11.536;2023-08-06T00:58:27;4.60;;;3.30;;
3815;SDS011;1923;48.154;11.536;2023-08-06T01:00:56;6.80;;;3.10;;
3815;SDS011;1923;48.154;11.536;2023-08-06T01:03:24;6.80;;;3.43;;
3815;SDS011;1923;48.154;11.536;2023-08-06T01:05:53;4.23;;;2.83;;
3815;SDS011;1923;48.154;11.536;2023-08-06T01:08:26;4.77;;;3.10;;
3815;SDS011;1923;48.154;11.536;2023-08-06T01:11:02;4.23;;;2.60;;
3815;SDS011;1923;48.154;11.536;2023-08-06T01:13:41;4.37;;;2.63;;
3815;SDS011;1923;48.154;11.536;2023-08-06T01:16:13;3.27;;;2.77;;
3815;SDS011;1923;48.154;11.536;2023-08-06T01:18:43;4.13;;;3.10;;
3815;SDS011;1923;48.154;11.536;2023-08-06T01:21:14;4.17;;;2.97;;
3815;SDS011;1923;48.154;11.536;2023-08-06T01:23:42;7.57;;;3.47;;
3815;SDS011;1923;48.154;11.536;2023-08-06T01:26:12;4.87;;;3.00;;
3815;SDS011;1923;48.154;11.536;2023-08-06T01:28:48;3.80;;;2.67;;
3815;SDS011;1923;48.154;11.536;2023-08-06T01:31:24;4.83;;;3.30;;
3815;SDS011;1923;48.154;11.536;2023-08-06T01:33:55;5.47;;;4.00;;
3815;SDS011;1923;48.154;11.536;2023-08-06T01:36:26;5.60;;;3.33;;
3815;SDS011;1923;48.154;11.536;2023-08-06T01:38:57;4.90;;;3.50;;
3815;SDS011;1923;48.154;11.536;2023-08-06T01:41:25;7.13;;;3.83;;
3815;SDS011;1923;48.154;11.536;2023-08-06T01:43:53;6.63;;;4.20;;
3815;SDS011;1923;48.154;11.536;2023-08-06T01:46:21;6.30;;;4.20;;
3815;SDS011;1923;48.154;11.536;2023-08-06T01:48:50;7.23;;;3.83;;
3815;SDS011;1923;48.154;11.536;2023-08-06T01:51:18;6.00;;;3.63;;
3815;SDS011;1923;48.154;11.536;2023-08-06T01:53:47;7.90;;;4.40;;
3815;SDS011;1923;48.154;11.536;2023-08-06T01:56:15;5.90;;;3.40;;
3815;SDS011;1923;48.154;11.536;2023-08-06T01:58:43;5.83;;;3.90;;
3815;SDS011;1923;48.154;11.536;2023-08-06T02:01:11;6.30;;;3.80;;
3815;SDS011;1923;48.154;11.536;2023-08-06T02:03:39;7.50;;;4.17;;
3815;SDS011;1923;48.154;11.536;2023-08-06T02:06:07;7.67;;;3.90;;
3815;SDS011;1923;48.154;11.536;2023-08-06T02:08:36;6.10;;;3.60;;
3815;SDS011;1923;48.154;11.536;2023-08-06T02:11:06;6.47;;;5.00;;
3815;SDS011;1923;48.154;11.536;2023-08-06T02:13:34;7.07;;;3.80;;
3815;SDS011;1923;48.154;11.536;2023-08-06T02:16:02;6.63;;;3.80;;
3815;SDS011;1923;48.154;11.536;2023-08-06T02:18:31;5.30;;;3.70;;
3815;SDS011;1923;48.154;11.536;2023-08-06T02:20:59;5.07;;;3.13;;
3815;SDS011;1923;48.154;11.536;2023-08-06T02:23:27;4.57;;;2.87;;
3815;SDS011;1923;48.154;11.536;2023-08-06T02:25:59;4.57;;;3.47;;
3815;SDS011;1923;48.154;11.536;2023-08-06T02:28:29;4.10;;;3.23;;
3815;SDS011;1923;48.154;11.536;2023-08-06T02:30:57;9.30;;;5.17;;
3815;SDS011;1923;48.154;11.536;2023-08-06T02:33:25;11.10;;;7.00;;
3815;SDS011;1923;48.154;11.536;2023-08-06T02:35:58;5.10;;;3.10;;
3815;SDS011;1923;48.154;11.536;2023-08-06T02:38:27;4.20;;;2.70;;
3815;SDS011;1923;48.154;11.536;2023-08-06T02:40:55;4.37;;;3.10;;
3815;SDS011;1923;48.154;11.536;2023-08-06T02:43:24;4.50;;;3.00;;
3815;SDS011;1923;48.154;11.536;2023-08-06T02:45:56;5.23;;;3.27;;
3815;SDS011;1923;48.154;11.536;2023-08-06T02:48:24;3.13;;;2.33;;
3815;SDS011;1923;48.154;11.536;2023-08-06T02:50:52;4.10;;;2.53;;
3815;SDS011;1923;48.154;11.536;2023-08-06T02:53:27;3.80;;;2.90;;
3815;SDS011;1923;48.154;11.536;2023-08-06T02:55:55;7.17;;;2.60;;
3815;SDS011;1923;48.154;11.536;2023-08-06T02:58:23;7.10;;;2.67;;
3815;SDS011;1923;48.154;11.536;2023-08-06T03:01:03;4.07;;;2.70;;
3815;SDS011;1923;48.154;11.536;2023-08-06T03:03:33;4.30;;;2.60;;
3815;SDS011;1923;48.154;11.536;2023-08-06T03:06:01;5.00;;;2.70;;
3815;SDS011;1923;48.154;11.536;2023-08-06T03:08:30;3.33;;;2.60;;
3815;SDS011;1923;48.154;11.536;2023-08-06T03:10:58;4.40;;;2.97;;
3815;SDS011;1923;48.154;11.536;2023-08-06T03:13:26;3.70;;;2.40;;
3815;SDS011;1923;48.154;11.536;2023-08-06T03:15:54;3.37;;;2.43;;
3815;SDS011;1923;48.154;11.536;2023-08-06T03:18:26;3.50;;;2.53;;
3815;SDS011;1923;48.154;11.536;2023-08-06T03:20:54;5.60;;;2.50;;
3815;SDS011;1923;48.154;11.536;2023-08-06T03:23:23;3.60;;;2.50;;
3815;SDS011;1923;48.154;11.536;2023-08-06T03:25:51;4.57;;;2.60;;
3815;SDS011;1923;48.154;11.536;2023-08-06T03:28:19;6.20;;;2.97;;
3815;SDS011;1923;48.154;11.536;2023-08-06T03:30:48;3.70;;;2.30;;
3815;SDS011;1923;48.154;11.536;2023-08-06T03:33:27;5.53;;;2.30;;
3815;SDS011;1923;48.154;11.536;2023-08-06T03:35:55;4.60;;;2.83;;
3815;SDS011;1923;48.154;11.536;2023-08-06T03:38:23;3.23;;;2.53;;
3815;SDS011;1923;48.154;11.536;2023-08-06T03:40:51;4.17;;;2.80;;
3815;SDS011;1923;48.154;11.536;2023-08-06T03:43:19;4.13;;;2.90;;
3815;SDS011;1923;48.154;11.536;2023-08-06T03:45:47;4.80;;;3.00;;
3815;SDS011;1923;48.154;11.536;2023-08-06T03:48:15;3.73;;;2.47;;
3815;SDS011;1923;48.154;11.536;2023-08-06T03:50:45;3.30;;;2.43;;
3815;SDS011;1923;48.154;11.536;2023-08-06T03:53:13;3.20;;;2.47;;
3815;SDS011;1923;48.154;11.536;2023-08-06T03:55:41;4.07;;;2.43;;
3815;SDS011;1923;48.154;11.536;2023-08-06T03:58:09;3.00;;;2.20;;
3815;SDS011;1923;48.154;11.536;2023-08-06T04:00:37;3.30;;;2.17;;
3815;SDS011;1923;48.154;11.536;2023-08-06T04:03:05;3.40;;;2.80;;
3815;SDS011;1923;48.154;11.536;2023-08-06T04:05:33;3.20;;;2.27;;
3815;SDS011;1923;48.154;11.536;2023-08-06T04:08:03;4.37;;;2.77;;
3815;SDS011;1923;48.154;11.536;2023-08-06T04:10:31;3.33;;;2.20;;
3815;SDS011;1923;48.154;11.536;2023-08-06T04:12:59;6.13;;;1.90;;
3815;SDS011;1923;48.154;11.536;2023-08-06T04:15:27;4.20;;;2.47;;
3815;SDS011;1923;48.154;11.536;2023-08-06T04:17:55;3.17;;;2.23;;
3815;SDS011;1923;48.154;11.536;2023-08-06T04:20:27;3.73;;;2.70;;
3815;SDS011;1923;48.154;11.536;2023-08-06T04:22:55;3.80;;;2.50;;
3815;SDS011;1923;48.154;11.536;2023-08-06T04:25:24;2.50;;;2.30;;
3815;SDS011;1923;48.154;11.536;2023-08-06T04:27:52;4.47;;;2.10;;
3815;SDS011;1923;48.154;11.536;2023-08-06T04:30:20;4.90;;;2.30;;
3815;SDS011;1923;48.154;11.536;2023-08-06T04:32:49;2.83;;;2.00;;
3815;SDS011;1923;48.154;11.536;2023-08-06T04:35:17;2.90;;;2.00;;
3815;SDS011;1923;48.154;11.536;2023-08-06T04:37:46;2.60;;;2.27;;
3815;SDS011;1923;48.154;11.536;2023-08-06T04:40:14;3.10;;;1.70;;
3815;SDS011;1923;48.154;11.536;2023-08-06T04:42:43;4.47;;;2.70;;
3815;SDS011;1923;48.154;11.536;2023-08-06T04:45:13;6.53;;;3.03;;
3815;SDS011;1923;48.154;11.536;2023-08-06T04:47:41;11.27;;;4.70;;
3815;SDS011;1923;48.154;11.536;2023-08-06T04:50:09;6.83;;;2.80;;
3815;SDS011;1923;48.154;11.536;2023-08-06T04:52:37;5.10;;;2.87;;
3815;SDS011;1923;48.154;11.536;2023-08-06T04:55:06;3.50;;;2.17;;
3815;SDS011;1923;48.154;11.536;2023-08-06T04:57:34;3.40;;;2.20;;
3815;SDS011;1923;48.154;11.536;2023-08-06T05:00:04;3.70;;;2.20;;
3815;SDS011;1923;48.154;11.536;2023-08-06T05:02:33;2.40;;;1.60;;
3815;SDS011;1923;48.154;11.536;2023-08-06T05:05:01;3.00;;;2.50;;
3815;SDS011;1923;48.154;11.536;2023-08-06T05:07:29;5.37;;;2.70;;
3815;SDS011;1923;48.154;11.536;2023-08-06T05:09:57;4.70;;;2.70;;
3815;SDS011;1923;48.154;11.536;2023-08-06T05:12:25;2.50;;;2.30;;
3815;SDS011;1923;48.154;11.536;2023-08-06T05:14:53;4.67;;;2.33;;
3815;SDS011;1923;48.154;11.536;2023-08-06T05:17:23;2.30;;;1.97;;
3815;SDS011;1923;48.154;11.536;2023-08-06T05:19:51;9.20;;;3.20;;
3815;SDS011;1923;48.154;11.536;2023-08-06T05:22:19;3.57;;;2.33;;
3815;SDS011;1923;48.154;11.536;2023-08-06T05:24:47;8.63;;;3.47;;
3815;SDS011;1923;48.154;11.536;2023-08-06T05:27:15;2.70;;;2.30;;
3815;SDS011;1923;48.154;11.536;2023-08-06T05:29:45;3.00;;;2.10;;
3815;SDS011;1923;48.154;11.536;2023-08-06T05:32:18;2.50;;;1.93;;
3815;SDS011;1923;48.154;11.536;2023-08-06T05:34:47;4.23;;;2.70;;
3815;SDS011;1923;48.154;11.536;2023-08-06T05:37:17;2.63;;;1.90;;
3815;SDS011;1923;48.154;11.536;2023-08-06T05:39:45;3.00;;;2.03;;
3815;SDS011;1923;48.154;11.536;2023-08-06T05:42:14;3.60;;;2.07;;
3815;SDS011;1923;48.154;11.536;2023-08-06T05:44:42;5.27;;;2.43;;
3815;SDS011;1923;48.154;11.536;2023-08-06T05:47:10;4.73;;;2.50;;
3815;SDS011;1923;48.154;11.536;2023-08-06T05:49:38;3.17;;;1.90;;
3815;SDS011;1923;48.154;11.536;2023-08-06T05:52:07;5.60;;;2.20;;
3815;SDS011;1923;48.154;11.536;2023-08-06T05:54:35;2.60;;;1.80;;
3815;SDS011;1923;48.154;11.536;2023-08-06T05:57:04;1.63;;;1.43;;
3815;SDS011;1923;48.154;11.536;2023-08-06T05:59:33;2.10;;;1.60;;
3815;SDS011;1923;48.154;11.536;2023-08-06T06:02:01;3.07;;;2.00;;
3815;SDS011;1923;48.154;11.536;2023-08-06T06:04:29;3.90;;;2.57;;
3815;SDS011;1923;48.154;11.536;2023-08-06T06:06:57;2.53;;;1.97;;
3815;SDS011;1923;48.154;11.536;2023-08-06T06:09:26;3.27;;;1.90;;
3815;SDS011;1923;48.154;11.536;2023-08-06T06:11:54;2.27;;;1.53;;
3815;SDS011;1923;48.154;11.536;2023-08-06T06:14:22;4.53;;;2.50;;
3815;SDS011;1923;48.154;11.536;2023-08-06T06:16:50;2.90;;;1.60;;
3815;SDS011;1923;48.154;11.536;2023-08-06T06:19:19;3.10;;;2.50;;
3815;SDS011;1923;48.154;11.536;2023-08-06T06:21:47;2.57;;;1.30;;
3815;SDS011;1923;48.154;11.536;2023-08-06T06:24:15;2.50;;;1.40;;
3815;SDS011;1923;48.154;11.536;2023-08-06T06:26:45;2.53;;;1.50;;
3815;SDS011;1923;48.154;11.536;2023-08-06T06:29:13;2.57;;;1.80;;
3815;SDS011;1923;48.154;11.536;2023-08-06T06:31:41;1.97;;;1.37;;
3815;SDS011;1923;48.154;11.536;2023-08-06T06:34:09;1.93;;;1.50;;
3815;SDS011;1923;48.154;11.536;2023-08-06T06:36:37;2.80;;;1.27;;
3815;SDS011;1923;48.154;11.536;2023-08-06T06:39:05;1.60;;;1.37;;
3815;SDS011;1923;48.154;11.536;2023-08-06T06:41:34;2.23;;;1.63;;
3815;SDS011;1923;48.154;11.536;2023-08-06T06:44:04;2.50;;;1.33;;
3815;SDS011;1923;48.154;11.536;2023-08-06T06:46:33;1.77;;;1.20;;
3815;SDS011;1923;48.154;11.536;2023-08-06T06:49:01;2.13;;;1.23;;
3815;SDS011;1923;48.154;11.536;2023-08-06T06:51:29;9.00;;;2.17;;
3815;SDS011;1923;48.154;11.536;2023-08-06T06:53:58;4.13;;;1.97;;
3815;SDS011;1923;48.154;11.536;2023-08-06T06:56:26;5.57;;;2.43;;
3815;SDS011;1923;48.154;11.536;2023-08-06T06:58:54;2.93;;;1.77;;
3815;SDS011;1923;48.154;11.536;2023-08-06T07:01:24;2.07;;;1.40;;
3815;SDS011;1923;48.154;11.536;2023-08-06T07:03:52;6.87;;;2.70;;
3815;SDS011;1923;48.154;11.536;2023-08-06T07:06:20;2.50;;;1.23;;
3815;SDS011;1923;48.154;11.536;2023-08-06T07:08:48;2.50;;;0.97;;
3815;SDS011;1923;48.154;11.536;2023-08-06T07:11:16;3.03;;;1.13;;
3815;SDS011;1923;48.154;11.536;2023-08-06T07:13:44;3.27;;;1.00;;
3815;SDS011;1923;48.154;11.536;2023-08-06T07:16:13;1.73;;;1.10;;
3815;SDS011;1923;48.154;11.536;2023-08-06T07:18:42;1.50;;;0.80;;
3815;SDS011;1923;48.154;11.536;2023-08-06T07:21:10;1.50;;;0.90;;
3815;SDS011;1923;48.154;11.536;2023-08-06T07:23:38;1.37;;;0.67;;
3815;SDS011;1923;48.154;11.536;2023-08-06T07:26:06;2.10;;;0.80;;
3815;SDS011;1923;48.154;11.536;2023-08-06T07:28:37;1.13;;;0.63;;
3815;SDS011;1923;48.154;11.536;2023-08-06T07:31:05;1.10;;;0.60;;
3815;SDS011;1923;48.154;11.536;2023-08-06T07:33:34;1.40;;;0.83;;
3815;SDS011;1923;48.154;11.536;2023-08-06T07:36:08;4.40;;;1.03;;
3815;SDS011;1923;48.154;11.536;2023-08-06T07:38:36;4.60;;;1.60;;
3815;SDS011;1923;48.154;11.536;2023-08-06T07:41:05;12.60;;;3.00;;
3815;SDS011;1923;48.154;11.536;2023-08-06T07:43:33;1.57;;;0.93;;
3815;SDS011;1923;48.154;11.536;2023-08-06T07:46:02;3.07;;;1.53;;
3815;SDS011;1923;48.154;11.536;2023-08-06T07:48:30;9.57;;;2.77;;
3815;SDS011;1923;48.154;11.536;2023-08-06T07:50:58;1.83;;;1.30;;
3815;SDS011;1923;48.154;11.536;2023-08-06T07:53:28;1.50;;;0.93;;
3815;SDS011;1923;48.154;11.536;2023-08-06T07:55:56;1.10;;;0.70;;
3815;SDS011;1923;48.154;11.536;2023-08-06T07:58:25;4.00;;;1.50;;
3815;SDS011;1923;48.154;11.536;2023-08-06T08:00:55;3.63;;;0.80;;
3815;SDS011;1923;48.154;11.536;2023-08-06T08:03:23;1.37;;;0.80;;
3815;SDS011;1923;48.154;11.536;2023-08-06T08:05:53;3.30;;;0.77;;
3815;SDS011;1923;48.154;11.536;2023-08-06T08:08:23;0.90;;;0.50;;
3815;SDS011;1923;48.154;11.536;2023-08-06T08:10:53;3.23;;;0.70;;
3815;SDS011;1923;48.154;11.536;2023-08-06T08:13:22;1.00;;;0.70;;
3815;SDS011;1923;48.154;11.536;2023-08-06T08:15:55;1.60;;;0.87;;
3815;SDS011;1923;48.154;11.536;2023-08-06T08:18:25;1.20;;;0.60;;
3815;SDS011;1923;48.154;11.536;2023-08-06T08:20:53;1.90;;;0.60;;
3815;SDS011;1923;48.154;11.536;2023-08-06T08:23:21;1.03;;;0.70;;
3815;SDS011;1923;48.154;11.536;2023-08-06T08:25:49;2.20;;;0.50;;
3815;SDS011;1923;48.154;11.536;2023-08-06T08:28:19;1.37;;;0.63;;
3815;SDS011;1923;48.154;11.536;2023-08-06T08:30:47;1.77;;;0.80;;
3815;SDS011;1923;48.154;11.536;2023-08-06T08:33:15;2.30;;;0.50;;
3815;SDS011;1923;48.154;11.536;2023-08-06T08:35:45;0.80;;;0.40;;
3815;SDS011;1923;48.154;11.536;2023-08-06T08:38:13;2.17;;;0.43;;
3815;SDS011;1923;48.154;11.536;2023-08-06T08:40:42;1.30;;;0.43;;
3815;SDS011;1923;48.154;11.536;2023-08-06T08:43:14;1.67;;;0.60;;
3815;SDS011;1923;48.154;11.536;2023-08-06T08:45:44;1.17;;;0.70;;
3815;SDS011;1923;48.154;11.536;2023-08-06T08:48:17;1.20;;;0.73;;
3815;SDS011;1923;48.154;11.536;2023-08-06T08:50:47;1.20;;;0.53;;
3815;SDS011;1923;48.154;11.536;2023-08-06T08:53:16;0.60;;;0.40;;
3815;SDS011;1923;48.154;11.536;2023-08-06T08:55:46;0.70;;;0.30;;
3815;SDS011;1923;48.154;11.536;2023-08-06T08:58:16;1.33;;;0.67;;
3815;SDS011;1923;48.154;11.536;2023-08-06T09:00:46;0.70;;;0.30;;
3815;SDS011;1923;48.154;11.536;2023-08-06T09:03:15;0.83;;;0.30;;
3815;SDS011;1923;48.154;11.536;2023-08-06T09:05:44;1.27;;;0.50;;
3815;SDS011;1923;48.154;11.536;2023-08-06T09:08:15;1.00;;;0.40;;
3815;SDS011;1923;48.154;11.536;2023-08-06T09:10:47;2.40;;;0.60;;
3815;SDS011;1923;48.154;11.536;2023-08-06T09:13:17;1.57;;;0.40;;
3815;SDS011;1923;48.154;11.536;2023-08-06T09:15:47;1.80;;;0.70;;
3815;SDS011;1923;48.154;11.536;2023-08-06T09:18:24;1.03;;;0.60;;
3815;SDS011;1923;48.154;11.536;2023-08-06T09:20:54;2.20;;;0.50;;
3815;SDS011;1923;48.154;11.536;2023-08-06T09:23:26;0.80;;;0.40;;
3815;SDS011;1923;48.154;11.536;2023-08-06T09:25:55;0.70;;;0.40;;
3815;SDS011;1923;48.154;11.536;2023-08-06T09:28:24;3.90;;;0.30;;
3815;SDS011;1923;48.154;11.536;2023-08-06T09:31:04;0.70;;;0.40;;
3815;SDS011;1923;48.154;11.536;2023-08-06T09:33:32;0.60;;;0.30;;
3815;SDS011;1923;48.154;11.536;2023-08-06T09:36:07;0.87;;;0.43;;
3815;SDS011;1923;48.154;11.536;2023-08-06T09:38:39;0.60;;;0.40;;
3815;SDS011;1923;48.154;11.536;2023-08-06T09:41:08;1.37;;;0.47;;
3815;SDS011;1923;48.154;11.536;2023-08-06T09:43:39;2.00;;;0.40;;
3815;SDS011;1923;48.154;11.536;2023-08-06T09:46:13;0.70;;;0.30;;
3815;SDS011;1923;48.154;11.536;2023-08-06T09:48:46;2.00;;;0.47;;
3815;SDS011;1923;48.154;11.536;2023-08-06T09:51:14;0.60;;;0.27;;
3815;SDS011;1923;48.154;11.536;2023-08-06T09:53:42;0.60;;;0.30;;
3815;SDS011;1923;48.154;11.536;2023-08-06T09:56:11;1.77;;;0.50;;
3815;SDS011;1923;48.154;11.536;2023-08-06T09:58:41;0.70;;;0.30;;
3815;SDS011;1923;48.154;11.536;2023-08-06T10:01:10;1.00;;;0.30;;
3815;SDS011;1923;48.154;11.536;2023-08-06T10:03:41;0.60;;;0.30;;
3815;SDS011;1923;48.154;11.536;2023-08-06T10:06:10;0.60;;;0.40;;
3815;SDS011;1923;48.154;11.536;2023-08-06T10:08:39;0.70;;;0.40;;
3815;SDS011;1923;48.154;11.536;2023-08-06T10:11:08;0.70;;;0.40;;
3815;SDS011;1923;48.154;11.536;2023-08-06T10:13:37;1.13;;;0.40;;
3815;SDS011;1923;48.154;11.536;2023-08-06T10:16:06;1.93;;;0.33;;
3815;SDS011;1923;48.154;11.536;2023-08-06T10:18:35;0.70;;;0.30;;
3815;SDS011;1923;48.154;11.536;2023-08-06T10:21:08;2.00;;;0.30;;
3815;SDS011;1923;48.154;11.536;2023-08-06T10:23:36;0.60;;;0.40;;
3815;SDS011;1923;48.154;11.536;2023-08-06T10:26:07;0.83;;;0.50;;
3815;SDS011;1923;48.154;11.536;2023-08-06T10:28:36;1.87;;;0.70;;
3815;SDS011;1923;48.154;11.536;2023-08-06T10:31:05;1.47;;;0.40;;
3815;SDS011;1923;48.154;11.536;2023-08-06T10:33:40;1.03;;;0.43;;
3815;SDS011;1923;48.154;11.536;2023-08-06T10:36:12;0.80;;;0.30;;
3815;SDS011;1923;48.154;11.536;2023-08-06T10:38:43;1.00;;;0.40;;
3815;SDS011;1923;48.154;11.536;2023-08-06T10:41:16;0.70;;;0.37;;
3815;SDS011;1923;48.154;11.536;2023-08-06T10:43:50;1.03;;;0.30;;
3815;SDS011;1923;48.154;11.536;2023-08-06T10:46:22;0.50;;;0.20;;
3815;SDS011;1923;48.154;11.536;2023-08-06T10:48:51;1.40;;;0.63;;
3815;SDS011;1923;48.154;11.536;2023-08-06T10:51:20;1.03;;;0.53;;
3815;SDS011;1923;48.154;11.536;2023-08-06T10:53:49;0.77;;;0.33;;
3815;SDS011;1923;48.154;11.536;2023-08-06T10:56:19;0.77;;;0.30;;
3815;SDS011;1923;48.154;11.536;2023-08-06T10:58:48;0.70;;;0.43;;
3815;SDS011;1923;48.154;11.536;2023-08-06T11:01:18;3.70;;;0.67;;
3815;SDS011;1923;48.154;11.536;2023-08-06T11:03:46;0.70;;;0.30;;
3815;SDS011;1923;48.154;11.536;2023-08-06T11:06:16;1.10;;;0.43;;
3815;SDS011;1923;48.154;11.536;2023-08-06T11:08:50;0.70;;;0.20;;
3815;SDS011;1923;48.154;11.536;2023-08-06T11:11:20;1.50;;;0.53;;
3815;SDS011;1923;48.154;11.536;2023-08-06T11:13:50;0.80;;;0.40;;
3815;SDS011;1923;48.154;11.536;2023-08-06T11:16:19;1.63;;;0.60;;
3815;SDS011;1923;48.154;11.536;2023-08-06T11:18:49;0.60;;;0.30;;
3815;SDS011;1923;48.154;11.536;2023-08-06T11:21:19;0.60;;;0.30;;
3815;SDS011;1923;48.154;11.536;2023-08-06T11:23:48;0.50;;;0.20;;
3815;SDS011;1923;48.154;11.536;2023-08-06T11:26:18;0.97;;;0.30;;
3815;SDS011;1923;48.154;11.536;2023-08-06T11:28:47;0.60;;;0.20;;
3815;SDS011;1923;48.154;11.536;2023-08-06T11:31:19;0.60;;;0.20;;
3815;SDS011;1923;48.154;11.536;2023-08-06T11:33:47;0.60;;;0.30;;
3815;SDS011;1923;48.154;11.536;2023-08-06T11:36:15;0.80;;;0.47;;
3815;SDS011;1923;48.154;11.536;2023-08-06T11:38:43;0.60;;;0.30;;
3815;SDS011;1923;48.154;11.536;2023-08-06T11:41:13;3.00;;;1.87;;
3815;SDS011;1923;48.154;11.536;2023-08-06T11:43:41;0.80;;;0.40;;
3815;SDS011;1923;48.154;11.536;2023-08-06T11:46:13;3.73;;;1.77;;
3815;SDS011;1923;48.154;11.536;2023-08-06T11:48:51;0.93;;;0.63;;
3815;SDS011;1923;48.154;11.536;2023-08-06T11:51:22;1.13;;;0.50;;
3815;SDS011;1923;48.154;11.536;2023-08-06T11:53:51;1.77;;;0.40;;
3815;SDS011;1923;48.154;11.536;2023-08-06T11:56:23;0.50;;;0.20;;
3815;SDS011;1923;48.154;11.536;2023-08-06T11:58:51;0.90;;;0.40;;
3815;SDS011;1923;48.154;11.536;2023-08-06T12:01:20;0.93;;;0.40;;
3815;SDS011;1923;48.154;11.536;2023-08-06T12:03:48;0.70;;;0.30;;
3815;SDS011;1923;48.154;11.536;2023-08-06T12:06:16;1.07;;;0.40;;
3815;SDS011;1923;48.154;11.536;2023-08-06T12:08:44;1.97;;;0.77;;
3815;SDS011;1923;48.154;11.536;2023-08-06T12:11:12;0.90;;;0.33;;
3815;SDS011;1923;48.154;11.536;2023-08-06T12:13:41;0.70;;;0.30;;
3815;SDS011;1923;48.154;11.536;2023-08-06T12:16:10;0.60;;;0.20;;
3815;SDS011;1923;48.154;11.536;2023-08-06T12:18:39;1.07;;;0.53;;
3815;SDS011;1923;48.154;11.536;2023-08-06T12:21:08;0.50;;;0.20;;
3815;SDS011;1923;48.154;11.536;2023-08-06T12:23:35;0.70;;;0.40;;
3815;SDS011;1923;48.154;11.536;2023-08-06T12:26:04;0.60;;;0.30;;
3815;SDS011;1923;48.154;11.536;2023-08-06T12:28:32;0.70;;;0.50;;
3815;SDS011;1923;48.154;11.536;2023-08-06T12:31:01;0.70;;;0.30;;
3815;SDS011;1923;48.154;11.536;2023-08-06T12:33:29;0.70;;;0.40;;
3815;SDS011;1923;48.154;11.536;2023-08-06T12:35:57;0.80;;;0.40;;
3815;SDS011;1923;48.154;11.536;2023-08-06T12:38:26;0.70;;;0.40;;
3815;SDS011;1923;48.154;11.536;2023-08-06T12:40:54;0.80;;;0.30;;
3815;SDS011;1923;48.154;11.536;2023-08-06T12:43:22;0.77;;;0.53;;
3815;SDS011;1923;48.154;11.536;2023-08-06T12:45:50;1.10;;;0.50;;
3815;SDS011;1923;48.154;11.536;2023-08-06T12:48:19;0.63;;;0.37;;
3815;SDS011;1923;48.154;11.536;2023-08-06T12:50:47;0.50;;;0.30;;
3815;SDS011;1923;48.154;11.536;2023-08-06T12:53:16;1.83;;;0.43;;
3815;SDS011;1923;48.154;11.536;2023-08-06T12:55:44;0.80;;;0.50;;
3815;SDS011;1923;48.154;11.536;2023-08-06T12:58:12;1.80;;;0.90;;
3815;SDS011;1923;48.154;11.536;2023-08-06T13:00:40;0.60;;;0.40;;
3815;SDS011;1923;48.154;11.536;2023-08-06T13:03:08;0.60;;;0.40;;
3815;SDS011;1923;48.154;11.536;2023-08-06T13:05:38;0.73;;;0.20;;
3815;SDS011;1923;48.154;11.536;2023-08-06T13:08:06;0.87;;;0.50;;
3815;SDS011;1923;48.154;11.536;2023-08-06T13:10:34;1.57;;;0.50;;
3815;SDS011;1923;48.154;11.536;2023-08-06T13:13:02;0.70;;;0.50;;
3815;SDS011;1923;48.154;11.536;2023-08-06T13:15:31;0.80;;;0.50;;
3815;SDS011;1923;48.154;11.536;2023-08-06T13:17:59;0.70;;;0.30;;
3815;SDS011;1923;48.154;11.536;2023-08-06T13:20:29;0.70;;;0.30;;
3815;SDS011;1923;48.154;11.536;2023-08-06T13:22:59;3.70;;;0.80;;
3815;SDS011;1923;48.154;11.536;2023-08-06T13:25:28;1.00;;;0.33;;
3815;SDS011;1923;48.154;11.536;2023-08-06T13:27:56;1.03;;;0.37;;
3815;SDS011;1923;48.154;11.536;2023-08-06T13:30:24;3.20;;;0.60;;
3815;SDS011;1923;48.154;11.536;2023-08-06T13:32:52;0.70;;;0.40;;
3815;SDS011;1923;48.154;11.536;2023-08-06T13:35:22;0.60;;;0.30;;
3815;SDS011;1923;48.154;11.536;2023-08-06T13:37:50;1.30;;;0.60;;
3815;SDS011;1923;48.154;11.536;2023-08-06T13:40:19;0.93;;;0.40;;
3815;SDS011;1923;48.154;11.536;2023-08-06T13:42:48;3.27;;;1.03;;
3815;SDS011;1923;48.154;11.536;2023-08-06T13:45:16;1.37;;;0.33;;
3815;SDS011;1923;48.154;11.536;2023-08-06T13:47:44;0.57;;;0.30;;
3815;SDS011;1923;48.154;11.536;2023-08-06T13:50:12;1.10;;;0.30;;
3815;SDS011;1923;48.154;11.536;2023-08-06T13:52:40;1.83;;;0.90;;
3815;SDS011;1923;48.154;11.536;2023-08-06T13:55:08;0.80;;;0.40;;
3815;SDS011;1923;48.154;11.536;2023-08-06T13:57:38;1.60;;;0.70;;
3815;SDS011;1923;48.154;11.536;2023-08-06T14:00:06;1.03;;;0.50;;
3815;SDS011;1923;48.154;11.536;2023-08-06T14:02:35;1.27;;;0.73;;
3815;SDS011;1923;48.154;11.536;2023-08-06T14:05:03;0.77;;;0.57;;
3815;SDS011;1923;48.154;11.536;2023-08-06T14:07:32;8.93;;;0.70;;
3815;SDS011;1923;48.154;11.536;2023-08-06T14:10:00;0.80;;;0.50;;
3815;SDS011;1923;48.154;11.536;2023-08-06T14:12:28;0.70;;;0.30;;
3815;SDS011;1923;48.154;11.536;2023-08-06T14:14:57;1.80;;;0.40;;
3815;SDS011;1923;48.154;11.536;2023-08-06T14:17:25;0.63;;;0.30;;
3815;SDS011;1923;48.154;11.536;2023-08-06T14:19:53;0.70;;;0.40;;
3815;SDS011;1923;48.154;11.536;2023-08-06T14:22:21;0.80;;;0.50;;
3815;SDS011;1923;48.154;11.536;2023-08-06T14:24:49;0.70;;;0.37;;
3815;SDS011;1923;48.154;11.536;2023-08-06T14:27:17;0.70;;;0.60;;
3815;SDS011;1923;48.154;11.536;2023-08-06T14:29:46;1.00;;;0.50;;
3815;SDS011;1923;48.154;11.536;2023-08-06T14:32:15;0.70;;;0.47;;
3815;SDS011;1923;48.154;11.536;2023-08-06T14:34:44;2.13;;;0.70;;
3815;SDS011;1923;48.154;11.536;2023-08-06T14:37:12;1.27;;;0.50;;
3815;SDS011;1923;48.154;11.536;2023-08-06T14:39:43;1.10;;;0.50;;
3815;SDS011;1923;48.154;11.536;2023-08-06T14:42:11;2.80;;;1.00;;
3815;SDS011;1923;48.154;11.536;2023-08-06T14:44:40;1.17;;;0.70;;
3815;SDS011;1923;48.154;11.536;2023-08-06T14:47:08;0.80;;;0.60;;
3815;SDS011;1923;48.154;11.536;2023-08-06T14:49:37;0.70;;;0.50;;
3815;SDS011;1923;48.154;11.536;2023-08-06T14:52:06;1.30;;;0.60;;
3815;SDS011;1923;48.154;11.536;2023-08-06T14:54:34;1.60;;;0.60;;
3815;SDS011;1923;48.154;11.536;2023-08-06T14:57:02;1.17;;;0.43;;
3815;SDS011;1923;48.154;11.536;2023-08-06T14:59:33;3.00;;;0.40;;
3815;SDS011;1923;48.154;11.536;2023-08-06T15:02:01;1.70;;;0.50;;
3815;SDS011;1923;48.154;11.536;2023-08-06T15:04:30;0.73;;;0.40;;
3815;SDS011;1923;48.154;11.536;2023-08-06T15:06:59;0.70;;;0.50;;
3815;SDS011;1923;48.154;11.536;2023-08-06T15:09:27;0.70;;;0.50;;
3815;SDS011;1923;48.154;11.536;2023-08-06T15:11:55;2.50;;;0.50;;